createdAt,value
2018-07-27T00:00:54.981Z,75.21
2018-07-27T00:03:24.398Z,75.40
2018-07-27T00:05:53.580Z,75.36
2018-07-27T00:08:22.659Z,75.23
2018-07-27T00:10:51.763Z,75.40
2018-07-27T00:16:04.284Z,76.86
2018-07-27T00:18:33.842Z,77.19
2018-07-27T00:21:02.965Z,77.07
2018-07-27T00:23:32.010Z,77.66
2018-07-27T00:26:01.118Z,77.57
2018-07-27T00:28:30.689Z,77.66
2018-07-27T00:30:59.807Z,77.69
2018-07-27T00:33:28.862Z,78.83
2018-07-27T00:35:58.342Z,78.74
2018-07-27T00:38:27.453Z,78.60
2018-07-27T00:40:56.919Z,79.30
2018-07-27T00:43:26.427Z,78.98
2018-07-27T00:45:55.512Z,79.98
2018-07-27T00:48:24.626Z,79.45
2018-07-27T00:50:53.730Z,78.16
2018-07-27T00:53:22.807Z,78.19
2018-07-27T00:55:52.256Z,78.52
2018-07-27T00:58:21.437Z,78.33
2018-07-27T01:00:50.525Z,78.32
2018-07-27T01:03:20.283Z,78.09
2018-07-27T01:05:49.393Z,77.95
2018-07-27T01:08:18.488Z,77.58
2018-07-27T01:10:47.525Z,77.67
2018-07-27T01:13:16.816Z,76.87
2018-07-27T01:15:45.911Z,77.14
2018-07-27T01:18:15.010Z,77.66
2018-07-27T01:20:44.084Z,76.70
2018-07-27T01:23:13.143Z,77.35
2018-07-27T01:25:42.288Z,77.34
2018-07-27T01:28:11.832Z,77.84
2018-07-27T01:30:41.522Z,76.60
2018-07-27T01:33:11.049Z,77.82
2018-07-27T01:35:40.328Z,76.74
2018-07-27T01:38:10.233Z,76.84
2018-07-27T01:40:40.162Z,77.33
2018-07-27T01:43:10.458Z,77.41
2018-07-27T01:45:40.002Z,77.36
2018-07-27T02:13:59.934Z,77.37
2018-07-27T02:16:29.259Z,78.74
2018-07-27T02:18:58.460Z,78.92
2018-07-27T02:21:27.526Z,78.76
2018-07-27T02:23:56.646Z,78.17
2018-07-27T02:26:25.778Z,78.82
2018-07-27T02:28:54.876Z,78.21
2018-07-27T02:31:24.161Z,78.87
2018-07-27T02:33:53.374Z,78.85
2018-07-27T02:36:22.459Z,79.12
2018-07-27T02:38:51.640Z,79.16
2018-07-27T02:41:20.694Z,79.13
2018-07-27T02:43:49.845Z,79.71
2018-07-27T02:46:18.919Z,79.79
2018-07-27T02:48:48.458Z,79.52
2018-07-27T02:51:17.600Z,79.49
2018-07-27T02:53:47.037Z,80.12
2018-07-27T02:56:16.590Z,80.31
2018-07-27T02:58:46.054Z,80.27
2018-07-27T03:01:15.575Z,80.65
2018-07-27T03:03:44.661Z,79.87
2018-07-27T03:06:13.726Z,79.69
2018-07-27T03:08:42.838Z,79.51
2018-07-27T03:11:11.933Z,80.07
2018-07-27T03:13:41.387Z,79.75
2018-07-27T03:16:11.037Z,79.67
2018-07-27T03:18:41.331Z,79.93
2018-07-27T03:21:11.162Z,80.30
2018-07-27T03:23:41.160Z,80.00
2018-07-27T03:26:11.459Z,79.53
2018-07-27T03:28:41.405Z,79.87
2018-07-27T03:31:11.343Z,79.58
2018-07-27T03:33:41.669Z,79.57
2018-07-27T03:36:11.549Z,80.23
2018-07-27T03:38:41.812Z,80.74
2018-07-27T03:41:12.723Z,80.83
2018-07-27T03:43:42.129Z,81.05
2018-07-27T03:46:11.554Z,80.82
2018-07-27T03:48:41.418Z,81.75
2018-07-27T03:51:11.817Z,82.09
2018-07-27T03:53:41.425Z,82.04
2018-07-27T03:56:11.664Z,82.18
2018-07-27T03:58:41.592Z,81.71
2018-07-27T04:01:11.835Z,81.70
2018-07-27T04:03:41.834Z,82.55
2018-07-27T04:06:11.738Z,82.01
2018-07-27T04:08:41.594Z,82.00
2018-07-27T04:11:11.979Z,82.59
2018-07-27T04:13:41.725Z,82.54
2018-07-27T04:16:11.810Z,82.27
2018-07-27T04:18:41.550Z,82.01
2018-07-27T04:21:12.043Z,83.31
2018-07-27T04:23:41.985Z,82.44
2018-07-27T04:26:11.909Z,83.07
2018-07-27T04:28:41.661Z,83.04
2018-07-27T04:31:12.110Z,83.33
2018-07-27T04:33:41.648Z,82.98
2018-07-27T04:55:30.779Z,82.93
2018-07-27T04:58:01.873Z,81.92
2018-07-27T05:00:31.019Z,81.41
2018-07-27T05:03:00.124Z,82.02
2018-07-27T05:05:29.189Z,82.97
2018-07-27T05:07:58.273Z,83.18
2018-07-27T05:10:32.580Z,82.85
2018-07-27T05:13:01.868Z,82.04
2018-07-27T05:15:31.314Z,81.84
2018-07-27T05:18:00.411Z,82.02
2018-07-27T05:20:29.963Z,82.04
2018-07-27T05:22:59.029Z,81.02
2018-07-27T05:25:28.097Z,81.21
2018-07-27T05:27:57.217Z,80.84
2018-07-27T05:30:26.952Z,81.08
2018-07-27T05:32:56.223Z,81.38
2018-07-27T05:35:25.938Z,81.30
2018-07-27T05:37:55.244Z,80.92
2018-07-27T05:40:24.943Z,81.24
2018-07-27T05:42:54.252Z,80.45
2018-07-27T05:45:23.614Z,79.87
2018-07-27T05:47:52.675Z,80.29
2018-07-27T05:50:21.976Z,79.87
2018-07-27T05:52:51.409Z,79.56
2018-07-27T05:55:20.384Z,79.66
2018-07-27T05:57:49.891Z,80.10
2018-07-27T06:00:19.140Z,80.74
2018-07-27T06:02:48.286Z,79.74
2018-07-27T06:05:17.436Z,78.72
2018-07-27T06:07:46.525Z,78.37
2018-07-27T06:10:15.958Z,77.49
2018-07-27T06:12:45.432Z,77.47
2018-07-27T06:15:14.574Z,76.73
2018-07-27T06:17:43.987Z,76.75
2018-07-27T06:20:13.174Z,76.14
2018-07-27T06:22:42.877Z,75.73
2018-07-27T06:25:12.817Z,75.86
2018-07-27T06:27:44.058Z,74.53
2018-07-27T06:30:13.237Z,74.09
2018-07-27T06:32:43.050Z,74.50
2018-07-27T06:35:13.484Z,73.38
2018-07-27T06:37:43.366Z,73.54
2018-07-27T06:40:12.906Z,73.36
2018-07-27T06:42:43.190Z,73.49
2018-07-27T06:45:13.248Z,72.89
2018-07-27T06:47:43.069Z,72.83
2018-07-27T06:50:13.318Z,72.11
2018-07-27T06:52:43.280Z,71.68
2018-07-27T06:55:13.271Z,72.20
2018-07-27T06:57:43.468Z,72.88
2018-07-27T07:00:13.395Z,71.80
2018-07-27T07:02:43.394Z,70.56
2018-07-27T07:05:13.697Z,69.08
2018-07-27T07:07:43.575Z,69.48
2018-07-27T07:10:13.507Z,69.23
2018-07-27T07:12:43.374Z,69.90
2018-07-27T07:15:13.754Z,68.67
2018-07-27T07:17:43.653Z,68.96
2018-07-27T07:20:13.485Z,69.17
2018-07-27T07:22:43.435Z,68.95
2018-07-27T07:25:13.784Z,68.88
2018-07-27T07:27:43.737Z,68.70
2018-07-27T07:30:13.578Z,69.41
2018-07-27T07:32:43.453Z,68.29
2018-07-27T07:35:13.930Z,68.73
2018-07-27T07:37:44.197Z,67.71
2018-07-27T07:40:13.631Z,67.75
2018-07-27T07:42:43.945Z,68.91
2018-07-27T07:45:15.067Z,68.00
2018-07-27T07:47:44.163Z,66.30
2018-07-27T07:50:13.577Z,66.30
2018-07-27T07:52:42.657Z,67.67
2018-07-27T07:55:11.708Z,65.98
2018-07-27T07:57:40.793Z,66.34
2018-07-27T08:00:10.019Z,65.31
2018-07-27T08:02:39.085Z,66.64
2018-07-27T08:05:09.229Z,66.03
2018-07-27T08:07:38.316Z,66.64
2018-07-27T08:10:07.383Z,67.67
2018-07-27T08:12:36.444Z,65.37
2018-07-27T08:15:05.713Z,64.90
2018-07-27T08:17:34.762Z,63.40
2018-07-27T08:20:04.061Z,63.39
2018-07-27T08:22:33.134Z,64.38
2018-07-27T08:25:02.239Z,62.97
2018-07-27T08:27:31.304Z,62.76
2018-07-27T08:30:00.368Z,61.83
2018-07-27T08:32:29.516Z,61.29
2018-07-27T08:34:58.604Z,61.00
2018-07-27T08:37:27.688Z,63.17
2018-07-27T08:39:58.040Z,63.01
2018-07-27T08:42:27.109Z,61.26
2018-07-27T08:44:56.168Z,61.03
2018-07-27T08:47:25.247Z,62.72
2018-07-27T08:49:54.347Z,62.00
2018-07-27T08:52:23.447Z,61.45
2018-07-27T08:54:52.531Z,60.28
2018-07-27T08:57:21.620Z,60.47
2018-07-27T08:59:51.143Z,58.91
2018-07-27T09:02:20.231Z,59.02
2018-07-27T09:04:49.306Z,58.75
2018-07-27T09:07:18.382Z,58.63
2018-07-27T09:09:47.445Z,57.50
2018-07-27T09:12:16.524Z,57.45
2018-07-27T09:14:45.607Z,56.44
2018-07-27T09:17:14.699Z,57.32
2018-07-27T09:19:44.621Z,53.95
2018-07-27T09:22:14.558Z,55.72
2018-07-27T09:24:44.726Z,54.53
2018-07-27T09:27:14.629Z,53.48
2018-07-27T09:29:44.696Z,54.15
2018-07-27T09:32:14.640Z,53.39
2018-07-27T09:34:44.590Z,52.83
2018-07-27T09:37:14.742Z,52.74
2018-07-27T09:39:44.828Z,53.21
2018-07-27T09:42:14.744Z,52.98
2018-07-27T09:44:44.692Z,52.13
2018-07-27T09:47:15.302Z,52.06
2018-07-27T09:49:44.970Z,50.68
2018-07-27T09:52:14.933Z,49.99
2018-07-27T09:54:44.939Z,51.26
2018-07-27T09:57:14.831Z,49.96
2018-07-27T09:59:45.045Z,49.93
2018-07-27T10:02:14.934Z,50.01
2018-07-27T10:04:44.865Z,50.31
2018-07-27T10:07:13.932Z,50.12
2018-07-27T10:09:43.059Z,51.06
2018-07-27T10:12:12.359Z,49.80
2018-07-27T10:14:41.623Z,51.47
2018-07-27T10:17:10.724Z,49.01
2018-07-27T10:19:39.865Z,51.47
2018-07-27T10:22:08.936Z,49.99
2018-07-27T10:24:38.034Z,50.19
2018-07-27T10:27:07.070Z,47.71
2018-07-27T10:29:36.158Z,47.47
2018-07-27T10:32:05.257Z,48.15
2018-07-27T10:34:34.346Z,48.25
2018-07-27T10:37:03.389Z,49.29
2018-07-27T10:39:32.454Z,48.30
2018-07-27T10:42:01.508Z,49.35
2018-07-27T10:44:30.574Z,46.69
2018-07-27T10:46:59.638Z,48.76
2018-07-27T10:49:28.752Z,48.00
2018-07-27T10:51:57.853Z,48.01
2018-07-27T10:54:27.174Z,47.43
2018-07-27T10:56:56.291Z,46.83
2018-07-27T10:59:25.343Z,47.75
2018-07-27T11:01:54.486Z,45.67
2018-07-27T11:04:23.880Z,45.05
2018-07-27T11:06:52.986Z,47.30
2018-07-27T11:09:22.112Z,46.84
2018-07-27T11:11:51.204Z,47.10
2018-07-27T11:14:20.298Z,45.86
2018-07-27T11:16:49.384Z,45.66
2018-07-27T11:19:18.793Z,45.07
2018-07-27T11:21:47.890Z,46.67
2018-07-27T11:24:16.951Z,45.62
2018-07-27T11:26:46.014Z,45.14
2018-07-27T11:29:15.746Z,45.99
2018-07-27T11:31:45.669Z,45.03
2018-07-27T11:34:15.796Z,45.32
2018-07-27T11:36:45.985Z,44.22
2018-07-27T11:39:15.964Z,44.10
2018-07-27T11:41:46.420Z,43.92
2018-07-27T11:44:16.070Z,46.88
2018-07-27T11:46:45.987Z,48.38
2018-07-27T11:49:16.051Z,45.82
2018-07-27T11:51:45.966Z,46.93
2018-07-27T11:54:16.138Z,46.04
2018-07-27T11:56:46.072Z,43.97
2018-07-27T11:59:16.139Z,44.84
2018-07-27T12:11:25.662Z,45.56
2018-07-27T12:13:54.987Z,43.57
2018-07-27T12:16:24.330Z,43.29
2018-07-27T12:18:53.401Z,43.48
2018-07-27T12:21:22.751Z,43.44
2018-07-27T12:23:52.139Z,45.68
2018-07-27T12:26:21.858Z,45.07
2018-07-27T12:28:51.396Z,43.09
2018-07-27T12:31:20.680Z,43.52
2018-07-27T12:33:49.750Z,42.02
2018-07-27T12:36:19.259Z,42.73
2018-07-27T12:38:48.368Z,43.19
2018-07-27T12:41:17.462Z,41.31
2018-07-27T12:43:46.542Z,42.03
2018-07-27T12:46:16.865Z,43.62
2018-07-27T12:48:46.686Z,42.64
2018-07-27T12:51:16.726Z,42.58
2018-07-27T12:53:46.682Z,44.93
2018-07-27T12:56:16.858Z,41.63
2018-07-27T12:58:46.506Z,43.54
2018-07-27T13:01:16.787Z,42.08
2018-07-27T13:03:46.665Z,40.78
2018-07-27T13:06:16.649Z,41.25
2018-07-27T13:08:46.746Z,41.82
2018-07-27T13:11:17.063Z,41.73
2018-07-27T13:13:47.246Z,40.41
2018-07-27T13:16:16.955Z,39.31
2018-07-27T13:18:47.254Z,40.27
2018-07-27T13:21:17.017Z,39.53
2018-07-27T13:23:57.779Z,40.56
2018-07-27T13:26:26.994Z,39.50
2018-07-27T13:28:56.097Z,42.29
2018-07-27T13:31:45.707Z,41.13
2018-07-27T13:34:52.066Z,42.08
2018-07-27T13:37:23.048Z,39.70
2018-07-27T13:42:24.517Z,42.80
2018-07-27T13:44:54.775Z,39.51
2018-07-27T13:47:24.105Z,39.75
2018-07-27T13:49:53.404Z,43.05
2018-07-27T13:52:22.637Z,40.52
2018-07-27T13:54:52.463Z,37.32
2018-07-27T13:57:21.521Z,37.68
2018-07-27T13:59:50.559Z,38.77
2018-07-27T14:02:19.637Z,41.34
2018-07-27T14:04:48.701Z,40.66
2018-07-27T14:07:17.957Z,38.21
2018-07-27T14:09:47.596Z,37.37
2018-07-27T14:12:17.499Z,39.76
2018-07-27T14:14:47.741Z,36.73
2018-07-27T14:17:17.737Z,38.08
2018-07-27T14:19:47.732Z,38.77
2018-07-27T14:22:17.574Z,36.45
2018-07-27T14:24:48.181Z,35.97
2018-07-27T14:27:17.619Z,35.21
2018-07-27T14:29:47.401Z,33.51
2018-07-27T14:32:17.444Z,33.34
2018-07-27T14:34:47.545Z,32.72
2018-07-27T14:37:17.885Z,32.35
2018-07-27T14:39:47.823Z,32.72
2018-07-27T14:42:17.785Z,31.02
2018-07-27T14:44:47.941Z,32.17
2018-07-27T14:47:17.957Z,31.87
2018-07-27T14:49:48.281Z,33.68
2018-07-27T14:52:18.174Z,34.19
2018-07-27T14:54:47.942Z,35.36
2018-07-27T14:57:18.031Z,36.24
2018-07-27T14:59:47.898Z,35.77
2018-07-27T15:02:18.210Z,36.97
2018-07-27T15:04:48.240Z,34.42
2018-07-27T15:07:17.801Z,34.41
2018-07-27T15:09:48.046Z,31.79
2018-07-27T15:12:17.979Z,32.89
2018-07-27T15:14:47.885Z,32.95
2018-07-27T15:17:18.188Z,31.65
2018-07-27T15:19:48.104Z,29.80
2018-07-27T15:22:18.418Z,31.03
2018-07-27T15:24:48.339Z,31.22
2018-07-27T15:27:18.088Z,30.34
2018-07-27T15:29:48.070Z,31.82
2018-07-27T15:32:18.138Z,30.82
2018-07-27T15:34:48.873Z,31.78
2018-07-27T15:37:18.552Z,30.72
2018-07-27T15:39:48.254Z,31.87
2018-07-27T15:42:20.159Z,33.02
2018-07-27T15:44:49.278Z,32.20
2018-07-27T15:47:18.706Z,34.56
2018-07-27T15:49:48.631Z,33.33
2018-07-27T15:52:18.551Z,33.32
2018-07-27T15:54:48.183Z,33.43
2018-07-27T15:57:18.319Z,33.12
2018-07-27T15:59:48.944Z,32.23
2018-07-27T16:02:18.646Z,33.54
2018-07-27T16:04:48.508Z,37.17
2018-07-27T16:07:18.531Z,39.07
2018-07-27T16:09:48.849Z,37.82
2018-07-27T16:12:18.520Z,34.63
2018-07-27T16:14:48.361Z,34.72
2018-07-27T16:17:18.970Z,35.87
2018-07-27T16:19:48.867Z,36.32
2018-07-27T16:22:18.882Z,33.82
2018-07-27T16:24:49.070Z,36.32
2018-07-27T16:27:18.553Z,35.00
2018-07-27T16:29:48.943Z,34.91
2018-07-27T16:32:18.709Z,34.44
2018-07-27T16:34:49.908Z,35.23
2018-07-27T16:37:19.223Z,36.91
2018-07-27T16:39:48.644Z,36.09
2018-07-27T16:42:18.920Z,36.83
2018-07-27T16:44:48.847Z,37.86
2018-07-27T16:47:18.856Z,37.51
2018-07-27T16:49:48.696Z,40.52
2018-07-27T16:52:18.755Z,41.47
2018-07-27T16:54:48.671Z,39.27
2018-07-27T16:57:18.932Z,39.98
2018-07-27T16:59:48.852Z,37.90
2018-07-27T17:02:19.105Z,38.95
2018-07-27T17:04:48.761Z,39.50
2018-07-27T17:07:18.669Z,39.33
2018-07-27T17:09:48.952Z,39.48
2018-07-27T17:12:33.997Z,39.61
2018-07-27T17:15:03.097Z,39.14
2018-07-27T17:17:32.145Z,39.66
2018-07-27T17:20:02.008Z,39.82
2018-07-27T17:22:31.147Z,40.83
2018-07-27T17:25:00.313Z,40.46
2018-07-27T17:27:29.343Z,40.56
2018-07-27T17:29:58.475Z,39.92
2018-07-27T17:32:27.601Z,40.07
2018-07-27T17:34:57.104Z,40.52
2018-07-27T17:37:26.343Z,40.11
2018-07-27T17:39:55.611Z,40.83
2018-07-27T17:42:24.803Z,42.01
2018-07-27T17:44:54.117Z,41.20
2018-07-27T17:47:23.214Z,42.22
2018-07-27T17:49:53.289Z,42.03
2018-07-27T17:52:22.416Z,42.82
2018-07-27T17:54:51.875Z,42.85
2018-07-27T17:57:20.957Z,43.16
2018-07-27T17:59:50.084Z,42.70
2018-07-27T18:02:19.429Z,43.03
2018-07-27T18:04:49.233Z,43.82
2018-07-27T18:07:19.529Z,44.09
2018-07-27T18:09:49.391Z,44.65
2018-07-27T18:12:19.662Z,45.37
2018-07-27T18:14:49.596Z,45.46
2018-07-27T18:17:19.373Z,45.47
2018-07-27T18:19:49.395Z,45.60
2018-07-27T18:22:19.371Z,45.96
2018-07-27T18:24:49.418Z,46.17
2018-07-27T18:27:19.285Z,46.16
2018-07-27T18:29:49.541Z,46.30
2018-07-27T18:32:19.496Z,47.10
2018-07-27T18:34:49.703Z,46.97
2018-07-27T18:37:19.663Z,47.33
2018-07-27T18:39:50.065Z,47.66
2018-07-27T18:42:19.896Z,48.90
2018-07-27T18:44:49.604Z,48.31
2018-07-27T18:47:19.634Z,48.09
2018-07-27T18:49:49.743Z,48.25
2018-07-27T18:52:19.774Z,48.92
2018-07-27T18:54:49.707Z,49.17
2018-07-27T18:57:19.766Z,49.27
2018-07-27T18:59:49.655Z,49.57
2018-07-27T19:02:20.015Z,49.86
2018-07-27T19:04:49.572Z,50.28
2018-07-27T19:07:19.632Z,49.98
2018-07-27T19:09:49.825Z,49.76
2018-07-27T19:12:19.705Z,50.51
2018-07-27T19:14:49.694Z,50.51
2018-07-27T19:17:20.021Z,50.62
2018-07-27T19:19:49.723Z,51.94
2018-07-27T19:22:19.825Z,51.55
2018-07-27T19:24:49.871Z,51.45
2018-07-27T19:27:20.086Z,51.85
2018-07-27T19:29:49.791Z,51.69
2018-07-27T19:32:20.323Z,52.09
2018-07-27T19:34:50.220Z,52.63
2018-07-27T19:37:20.169Z,52.69
2018-07-27T19:39:49.881Z,53.07
2018-07-27T19:42:20.300Z,52.14
2018-07-27T19:44:49.906Z,52.96
2018-07-27T19:47:20.272Z,52.81
2018-07-27T19:49:50.966Z,52.34
2018-07-27T19:52:20.093Z,53.47
2018-07-27T19:54:50.247Z,53.54
2018-07-27T19:57:20.012Z,53.41
2018-07-27T19:59:50.098Z,53.73
2018-07-27T20:02:20.188Z,53.81
2018-07-27T20:04:50.026Z,53.35
2018-07-27T20:07:20.020Z,53.50
2018-07-27T20:09:50.177Z,54.24
2018-07-27T20:12:20.275Z,54.75
2018-07-27T20:14:50.411Z,54.28
2018-07-27T20:17:20.163Z,55.31
2018-07-27T20:19:50.285Z,56.55
2018-07-27T20:22:20.951Z,57.48
2018-07-27T20:24:50.842Z,57.73
2018-07-27T20:27:20.434Z,57.54
2018-07-27T20:29:50.276Z,58.18
2018-07-27T20:32:20.471Z,58.33
2018-07-27T20:34:50.285Z,57.71
2018-07-27T20:37:20.250Z,58.13
2018-07-27T20:39:50.324Z,56.50
2018-07-27T20:42:20.440Z,56.48
2018-07-27T20:44:50.370Z,56.80
2018-07-27T20:47:20.560Z,56.71
2018-07-27T20:49:50.398Z,56.73
2018-07-27T20:52:20.574Z,56.99
2018-07-27T20:54:50.612Z,56.47
2018-07-27T20:57:20.750Z,57.63
2018-07-27T20:59:50.498Z,57.76
2018-07-27T21:02:20.813Z,59.20
2018-07-27T21:04:50.558Z,61.18
2018-07-27T21:07:20.797Z,61.70
2018-07-27T21:09:50.637Z,61.92
2018-07-27T21:12:20.943Z,62.70
2018-07-27T21:14:50.588Z,63.20
2018-07-27T21:17:20.888Z,64.04
2018-07-27T21:19:50.844Z,64.37
2018-07-27T21:22:20.985Z,64.63
2018-07-27T21:24:51.486Z,64.50
2018-07-27T21:27:20.963Z,64.09
2018-07-27T21:29:51.276Z,64.34
2018-07-27T21:32:20.814Z,64.80
2018-07-27T21:34:50.767Z,64.56
2018-07-27T21:37:21.031Z,64.36
2018-07-27T21:39:50.951Z,64.69
2018-07-27T21:42:20.905Z,64.79
2018-07-27T21:44:51.077Z,66.07
2018-07-27T21:47:21.124Z,65.32
2018-07-27T21:49:51.148Z,66.04
2018-07-27T21:52:21.382Z,65.97
2018-07-27T21:54:51.302Z,64.70
2018-07-27T21:57:21.054Z,65.98
2018-07-27T21:59:51.116Z,65.54
2018-07-27T22:02:21.407Z,65.80
2018-07-27T22:04:51.268Z,66.15
2018-07-27T22:07:21.190Z,67.02
2018-07-27T22:09:51.335Z,66.00
2018-07-27T22:12:21.142Z,65.87
2018-07-27T22:14:51.295Z,67.03
2018-07-27T22:17:21.253Z,67.70
2018-07-27T22:19:51.307Z,68.67
2018-07-27T22:22:21.246Z,68.47
2018-07-27T22:24:52.268Z,68.96
2018-07-27T22:27:21.348Z,69.37
2018-07-27T22:29:51.337Z,69.61
2018-07-27T22:32:21.369Z,69.09
2018-07-27T22:34:51.543Z,69.60
2018-07-27T22:37:21.301Z,69.97
2018-07-27T22:39:51.423Z,70.18
2018-07-27T22:42:21.370Z,71.00
2018-07-27T22:44:51.630Z,70.74
2018-07-27T22:47:21.561Z,69.93
2018-07-27T22:49:52.117Z,70.73
2018-07-27T22:52:22.017Z,70.86
2018-07-27T22:54:51.690Z,71.11
2018-07-27T22:57:21.721Z,71.47
2018-07-27T22:59:51.928Z,71.67
2018-07-27T23:02:21.775Z,72.80
2018-07-27T23:04:51.779Z,72.00
2018-07-27T23:07:22.518Z,72.38
2018-07-27T23:09:52.395Z,72.85
2018-07-27T23:12:22.069Z,73.60
2018-07-27T23:14:52.285Z,73.17
2018-07-27T23:17:21.817Z,73.08
2018-07-27T23:19:52.218Z,73.14
2018-07-27T23:22:21.941Z,72.62
2018-07-27T23:24:52.347Z,73.04
2018-07-27T23:27:22.239Z,72.65
2018-07-27T23:29:52.201Z,72.79
2018-07-27T23:32:21.954Z,72.54
2018-07-27T23:34:52.042Z,72.05
2018-07-27T23:37:22.241Z,71.45
2018-07-27T23:39:52.273Z,72.37
2018-07-27T23:42:22.055Z,72.51
2018-07-27T23:44:52.126Z,72.88
2018-07-27T23:47:22.405Z,72.42
2018-07-27T23:49:52.374Z,73.66
2018-07-27T23:52:22.151Z,73.82
2018-07-27T23:54:52.646Z,74.39
2018-07-27T23:57:22.096Z,75.51
2018-07-27T23:59:52.424Z,76.63
